sensor_id;sensor_type;location;lat;lon;timestamp;temperature;humidity
22503;DHT22;11418;48.118;9.992;2022-09-09T00:03:02;10.20;99.90
22503;DHT22;11418;48.118;9.992;2022-09-09T00:11:17;10.60;99.90
22503;DHT22;11418;48.118;9.992;2022-09-09T00:15:35;10.40;99.90
22503;DHT22;11418;48.118;9.992;2022-09-09T00:19:56;10.30;99.90
22503;DHT22;11418;48.118;9.992;2022-09-09T00:23:58;10.30;99.90
22503;DHT22;11418;48.118;9.992;2022-09-09T00:27:59;10.30;99.90
22503;DHT22;11418;48.118;9.992;2022-09-09T00:32:08;10.30;99.90
22503;DHT22;11418;48.118;9.992;2022-09-09T00:36:18;10.50;99.90
22503;DHT22;11418;48.118;9.992;2022-09-09T00:40:34;10.40;99.90
22503;DHT22;11418;48.118;9.992;2022-09-09T00:44:37;10.40;99.90
22503;DHT22;11418;48.118;9.992;2022-09-09T00:57:25;10.30;99.90
22503;DHT22;11418;48.118;9.992;2022-09-09T01:01:28;10.40;99.90
22503;DHT22;11418;48.118;9.992;2022-09-09T01:09:50;10.30;99.90
22503;DHT22;11418;48.118;9.992;2022-09-09T01:14:11;10.30;99.90
22503;DHT22;11418;48.118;9.992;2022-09-09T01:18:17;10.40;99.90
22503;DHT22;11418;48.118;9.992;2022-09-09T01:22:33;10.30;99.90
22503;DHT22;11418;48.118;9.992;2022-09-09T01:26:41;10.10;99.90
22503;DHT22;11418;48.118;9.992;2022-09-09T01:30:42;10.00;99.90
22503;DHT22;11418;48.118;9.992;2022-09-09T01:34:42;10.00;99.90
22503;DHT22;11418;48.118;9.992;2022-09-09T01:38:43;10.00;99.90
22503;DHT22;11418;48.118;9.992;2022-09-09T01:42:43;10.00;99.90
22503;DHT22;11418;48.118;9.992;2022-09-09T01:46:44;10.00;99.90
22503;DHT22;11418;48.118;9.992;2022-09-09T01:50:44;10.00;99.90
22503;DHT22;11418;48.118;9.992;2022-09-09T01:54:45;9.90;99.90
22503;DHT22;11418;48.118;9.992;2022-09-09T01:59:15;10.00;99.90
22503;DHT22;11418;48.118;9.992;2022-09-09T02:03:25;10.20;99.90
22503;DHT22;11418;48.118;9.992;2022-09-09T02:07:40;10.10;99.90
22503;DHT22;11418;48.118;9.992;2022-09-09T02:11:44;10.20;99.90
22503;DHT22;11418;48.118;9.992;2022-09-09T02:19:56;10.30;99.90
22503;DHT22;11418;48.118;9.992;2022-09-09T02:24:01;10.20;99.90
22503;DHT22;11418;48.118;9.992;2022-09-09T02:28:07;9.90;99.90
22503;DHT22;11418;48.118;9.992;2022-09-09T02:32:21;9.90;99.90
22503;DHT22;11418;48.118;9.992;2022-09-09T02:36:24;9.80;99.90
22503;DHT22;11418;48.118;9.992;2022-09-09T02:40:27;9.70;99.90
22503;DHT22;11418;48.118;9.992;2022-09-09T02:44:27;9.60;99.90
22503;DHT22;11418;48.118;9.992;2022-09-09T02:48:35;9.80;99.90
22503;DHT22;11418;48.118;9.992;2022-09-09T02:57:16;10.30;99.90
22503;DHT22;11418;48.118;9.992;2022-09-09T03:01:17;10.20;99.90
22503;DHT22;11418;48.118;9.992;2022-09-09T03:05:18;10.10;99.90
22503;DHT22;11418;48.118;9.992;2022-09-09T03:09:18;10.10;99.90
22503;DHT22;11418;48.118;9.992;2022-09-09T03:13:19;10.00;99.90
22503;DHT22;11418;48.118;9.992;2022-09-09T03:17:19;10.00;99.90
22503;DHT22;11418;48.118;9.992;2022-09-09T03:21:20;10.20;99.90
22503;DHT22;11418;48.118;9.992;2022-09-09T03:25:22;10.40;99.90
22503;DHT22;11418;48.118;9.992;2022-09-09T03:29:26;10.60;99.90
22503;DHT22;11418;48.118;9.992;2022-09-09T03:33:27;10.70;99.90
22503;DHT22;11418;48.118;9.992;2022-09-09T03:37:28;10.90;99.90
22503;DHT22;11418;48.118;9.992;2022-09-09T03:41:29;11.10;99.90
22503;DHT22;11418;48.118;9.992;2022-09-09T03:45:30;11.60;99.90
22503;DHT22;11418;48.118;9.992;2022-09-09T03:49:30;11.50;99.90
22503;DHT22;11418;48.118;9.992;2022-09-09T03:53:31;11.80;99.90
22503;DHT22;11418;48.118;9.992;2022-09-09T03:57:32;11.70;99.90
22503;DHT22;11418;48.118;9.992;2022-09-09T04:01:35;11.50;99.90
22503;DHT22;11418;48.118;9.992;2022-09-09T04:05:35;11.40;99.90
22503;DHT22;11418;48.118;9.992;2022-09-09T04:09:39;11.50;99.90
22503;DHT22;11418;48.118;9.992;2022-09-09T04:13:40;11.20;99.90
22503;DHT22;11418;48.118;9.992;2022-09-09T04:17:41;11.20;99.90
22503;DHT22;11418;48.118;9.992;2022-09-09T04:21:43;11.10;99.90
22503;DHT22;11418;48.118;9.992;2022-09-09T04:25:47;10.90;99.90
22503;DHT22;11418;48.118;9.992;2022-09-09T04:29:48;11.00;99.90
22503;DHT22;11418;48.118;9.992;2022-09-09T04:33:50;11.20;99.90
22503;DHT22;11418;48.118;9.992;2022-09-09T04:37:50;11.20;99.90
22503;DHT22;11418;48.118;9.992;2022-09-09T04:41:51;11.10;99.90
22503;DHT22;11418;48.118;9.992;2022-09-09T04:45:52;11.10;99.90
22503;DHT22;11418;48.118;9.992;2022-09-09T04:49:52;11.10;99.90
22503;DHT22;11418;48.118;9.992;2022-09-09T04:53:54;11.10;99.90
22503;DHT22;11418;48.118;9.992;2022-09-09T04:57:55;11.30;99.90
22503;DHT22;11418;48.118;9.992;2022-09-09T05:01:55;11.30;99.90
22503;DHT22;11418;48.118;9.992;2022-09-09T05:06:03;11.50;99.90
22503;DHT22;11418;48.118;9.992;2022-09-09T05:10:04;11.50;99.90
22503;DHT22;11418;48.118;9.992;2022-09-09T05:14:06;11.70;99.90
22503;DHT22;11418;48.118;9.992;2022-09-09T05:18:07;11.70;99.90
22503;DHT22;11418;48.118;9.992;2022-09-09T05:22:08;11.80;99.90
22503;DHT22;11418;48.118;9.992;2022-09-09T05:26:12;12.00;99.90
22503;DHT22;11418;48.118;9.992;2022-09-09T05:30:13;12.20;99.90
22503;DHT22;11418;48.118;9.992;2022-09-09T05:34:14;12.50;99.90
22503;DHT22;11418;48.118;9.992;2022-09-09T05:38:14;12.50;99.90
22503;DHT22;11418;48.118;9.992;2022-09-09T05:42:15;12.80;99.90
22503;DHT22;11418;48.118;9.992;2022-09-09T05:46:20;12.90;99.90
22503;DHT22;11418;48.118;9.992;2022-09-09T05:50:21;12.90;99.90
22503;DHT22;11418;48.118;9.992;2022-09-09T05:54:22;12.90;99.90
22503;DHT22;11418;48.118;9.992;2022-09-09T05:58:23;12.90;99.90
22503;DHT22;11418;48.118;9.992;2022-09-09T06:02:24;12.90;99.90
22503;DHT22;11418;48.118;9.992;2022-09-09T06:06:27;12.90;99.90
22503;DHT22;11418;48.118;9.992;2022-09-09T06:10:30;13.10;99.90
22503;DHT22;11418;48.118;9.992;2022-09-09T06:14:31;13.50;99.90
22503;DHT22;11418;48.118;9.992;2022-09-09T06:18:31;13.70;99.90
22503;DHT22;11418;48.118;9.992;2022-09-09T06:22:32;13.90;99.90
22503;DHT22;11418;48.118;9.992;2022-09-09T06:26:34;14.00;99.90
22503;DHT22;11418;48.118;9.992;2022-09-09T06:30:35;14.10;99.90
22503;DHT22;11418;48.118;9.992;2022-09-09T06:34:36;14.10;99.90
22503;DHT22;11418;48.118;9.992;2022-09-09T06:38:37;14.10;99.90
22503;DHT22;11418;48.118;9.992;2022-09-09T06:42:37;14.10;99.90
22503;DHT22;11418;48.118;9.992;2022-09-09T06:46:39;14.20;99.90
22503;DHT22;11418;48.118;9.992;2022-09-09T06:50:39;14.20;99.90
22503;DHT22;11418;48.118;9.992;2022-09-09T06:54:40;14.10;99.90
22503;DHT22;11418;48.118;9.992;2022-09-09T06:58:42;14.20;99.90
22503;DHT22;11418;48.118;9.992;2022-09-09T07:02:44;14.50;99.90
22503;DHT22;11418;48.118;9.992;2022-09-09T07:06:45;15.00;99.90
22503;DHT22;11418;48.118;9.992;2022-09-09T07:10:46;15.30;99.90
22503;DHT22;11418;48.118;9.992;2022-09-09T07:14:47;15.40;99.90
22503;DHT22;11418;48.118;9.992;2022-09-09T07:18:47;15.70;99.90
22503;DHT22;11418;48.118;9.992;2022-09-09T07:22:49;16.20;99.90
22503;DHT22;11418;48.118;9.992;2022-09-09T07:26:49;16.70;99.90
22503;DHT22;11418;48.118;9.992;2022-09-09T07:30:58;16.90;99.90
22503;DHT22;11418;48.118;9.992;2022-09-09T07:34:58;16.90;99.90
22503;DHT22;11418;48.118;9.992;2022-09-09T07:39:09;17.10;99.90
22503;DHT22;11418;48.118;9.992;2022-09-09T07:43:10;17.40;99.90
22503;DHT22;11418;48.118;9.992;2022-09-09T07:47:11;17.70;99.90
22503;DHT22;11418;48.118;9.992;2022-09-09T07:51:16;17.80;99.90
22503;DHT22;11418;48.118;9.992;2022-09-09T07:55:21;18.00;99.90
22503;DHT22;11418;48.118;9.992;2022-09-09T07:59:21;18.20;99.90
22503;DHT22;11418;48.118;9.992;2022-09-09T08:03:22;18.60;99.90
22503;DHT22;11418;48.118;9.992;2022-09-09T08:07:22;18.70;99.90
22503;DHT22;11418;48.118;9.992;2022-09-09T08:11:25;18.80;99.90
22503;DHT22;11418;48.118;9.992;2022-09-09T08:15:25;19.00;99.90
22503;DHT22;11418;48.118;9.992;2022-09-09T08:19:26;19.10;99.90
22503;DHT22;11418;48.118;9.992;2022-09-09T08:23:29;19.40;99.90
22503;DHT22;11418;48.118;9.992;2022-09-09T08:27:30;19.60;99.90
22503;DHT22;11418;48.118;9.992;2022-09-09T08:31:35;19.90;99.90
22503;DHT22;11418;48.118;9.992;2022-09-09T08:35:37;20.10;99.90
22503;DHT22;11418;48.118;9.992;2022-09-09T08:39:38;20.40;99.90
22503;DHT22;11418;48.118;9.992;2022-09-09T08:43:39;20.30;99.90
22503;DHT22;11418;48.118;9.992;2022-09-09T08:51:54;20.50;99.90
22503;DHT22;11418;48.118;9.992;2022-09-09T08:56:08;20.70;99.90
22503;DHT22;11418;48.118;9.992;2022-09-09T09:00:10;20.30;99.90
22503;DHT22;11418;48.118;9.992;2022-09-09T09:09:21;21.00;99.90
22503;DHT22;11418;48.118;9.992;2022-09-09T09:17:37;21.50;99.90
22503;DHT22;11418;48.118;9.992;2022-09-09T09:21:47;21.60;99.90
22503;DHT22;11418;48.118;9.992;2022-09-09T09:25:55;21.60;99.90
22503;DHT22;11418;48.118;9.992;2022-09-09T09:30:00;22.10;99.90
22503;DHT22;11418;48.118;9.992;2022-09-09T09:34:01;22.50;99.90
22503;DHT22;11418;48.118;9.992;2022-09-09T09:38:34;22.70;99.90
22503;DHT22;11418;48.118;9.992;2022-09-09T09:42:34;22.50;99.90
22503;DHT22;11418;48.118;9.992;2022-09-09T09:46:34;22.20;99.90
22503;DHT22;11418;48.118;9.992;2022-09-09T09:50:35;22.70;99.90
22503;DHT22;11418;48.118;9.992;2022-09-09T09:54:46;22.50;99.90
22503;DHT22;11418;48.118;9.992;2022-09-09T09:58:51;22.80;99.90
22503;DHT22;11418;48.118;9.992;2022-09-09T10:02:53;23.00;99.90
22503;DHT22;11418;48.118;9.992;2022-09-09T10:06:53;23.30;99.90
22503;DHT22;11418;48.118;9.992;2022-09-09T10:15:02;23.30;99.90
22503;DHT22;11418;48.118;9.992;2022-09-09T10:19:13;22.90;99.90
22503;DHT22;11418;48.118;9.992;2022-09-09T10:32:06;23.20;99.90
22503;DHT22;11418;48.118;9.992;2022-09-09T10:36:21;24.70;99.90
22503;DHT22;11418;48.118;9.992;2022-09-09T10:40:39;24.60;99.90
22503;DHT22;11418;48.118;9.992;2022-09-09T10:44:48;25.50;99.90
22503;DHT22;11418;48.118;9.992;2022-09-09T10:50:07;25.10;99.90
22503;DHT22;11418;48.118;9.992;2022-09-09T10:57:58;23.90;99.90
22503;DHT22;11418;48.118;9.992;2022-09-09T11:02:13;24.60;99.90
22503;DHT22;11418;48.118;9.992;2022-09-09T11:06:19;25.30;99.90
22503;DHT22;11418;48.118;9.992;2022-09-09T11:14:51;26.60;99.90
22503;DHT22;11418;48.118;9.992;2022-09-09T11:19:04;27.00;99.90
22503;DHT22;11418;48.118;9.992;2022-09-09T11:23:11;26.40;99.90
22503;DHT22;11418;48.118;9.992;2022-09-09T11:27:19;23.80;99.90
22503;DHT22;11418;48.118;9.992;2022-09-09T11:31:46;24.50;99.90
22503;DHT22;11418;48.118;9.992;2022-09-09T11:40:23;26.50;99.90
22503;DHT22;11418;48.118;9.992;2022-09-09T11:44:29;26.80;99.90
22503;DHT22;11418;48.118;9.992;2022-09-09T11:48:41;27.20;99.90
22503;DHT22;11418;48.118;9.992;2022-09-09T11:52:47;28.20;97.70
22503;DHT22;11418;48.118;9.992;2022-09-09T11:56:49;28.10;97.50
22503;DHT22;11418;48.118;9.992;2022-09-09T12:00:50;28.30;97.50
22503;DHT22;11418;48.118;9.992;2022-09-09T12:05:12;28.80;94.30
22503;DHT22;11418;48.118;9.992;2022-09-09T12:09:28;27.80;92.00
22503;DHT22;11418;48.118;9.992;2022-09-09T12:13:30;25.30;96.10
22503;DHT22;11418;48.118;9.992;2022-09-09T12:27:14;22.50;99.90
22503;DHT22;11418;48.118;9.992;2022-09-09T12:30:57;25.40;99.90
22503;DHT22;11418;48.118;9.992;2022-09-09T12:34:59;24.10;99.90
22503;DHT22;11418;48.118;9.992;2022-09-09T12:39:33;23.30;99.90
22503;DHT22;11418;48.118;9.992;2022-09-09T12:43:31;22.90;99.90
22503;DHT22;11418;48.118;9.992;2022-09-09T12:47:43;24.30;99.90
22503;DHT22;11418;48.118;9.992;2022-09-09T12:51:46;27.90;98.20
22503;DHT22;11418;48.118;9.992;2022-09-09T12:56:05;27.80;96.90
22503;DHT22;11418;48.118;9.992;2022-09-09T13:00:24;27.60;96.10
22503;DHT22;11418;48.118;9.992;2022-09-09T13:04:25;26.40;97.90
22503;DHT22;11418;48.118;9.992;2022-09-09T13:08:25;25.00;99.90
22503;DHT22;11418;48.118;9.992;2022-09-09T13:12:27;25.70;99.90
22503;DHT22;11418;48.118;9.992;2022-09-09T13:16:29;26.10;99.90
22503;DHT22;11418;48.118;9.992;2022-09-09T13:20:33;27.30;99.00
22503;DHT22;11418;48.118;9.992;2022-09-09T13:24:34;29.10;95.40
22503;DHT22;11418;48.118;9.992;2022-09-09T13:28:35;29.20;95.20
22503;DHT22;11418;48.118;9.992;2022-09-09T13:32:36;30.00;87.40
22503;DHT22;11418;48.118;9.992;2022-09-09T13:36:36;30.50;86.40
22503;DHT22;11418;48.118;9.992;2022-09-09T13:40:37;30.50;85.80
22503;DHT22;11418;48.118;9.992;2022-09-09T13:44:39;30.50;80.90
22503;DHT22;11418;48.118;9.992;2022-09-09T13:48:41;29.00;81.90
22503;DHT22;11418;48.118;9.992;2022-09-09T13:52:42;29.30;87.50
22503;DHT22;11418;48.118;9.992;2022-09-09T13:56:43;31.00;78.30
22503;DHT22;11418;48.118;9.992;2022-09-09T14:00:44;31.00;75.00
22503;DHT22;11418;48.118;9.992;2022-09-09T14:04:45;32.20;72.20
22503;DHT22;11418;48.118;9.992;2022-09-09T14:08:46;32.50;67.00
22503;DHT22;11418;48.118;9.992;2022-09-09T14:12:46;31.20;70.10
22503;DHT22;11418;48.118;9.992;2022-09-09T14:16:47;31.30;66.60
22503;DHT22;11418;48.118;9.992;2022-09-09T14:20:47;30.30;72.90
22503;DHT22;11418;48.118;9.992;2022-09-09T14:24:48;31.40;67.80
22503;DHT22;11418;48.118;9.992;2022-09-09T14:28:49;31.30;68.10
22503;DHT22;11418;48.118;9.992;2022-09-09T14:32:50;31.40;67.00
22503;DHT22;11418;48.118;9.992;2022-09-09T14:36:50;29.80;69.10
22503;DHT22;11418;48.118;9.992;2022-09-09T14:40:51;30.00;71.40
22503;DHT22;11418;48.118;9.992;2022-09-09T14:44:52;30.00;71.80
22503;DHT22;11418;48.118;9.992;2022-09-09T14:48:52;30.40;72.00
22503;DHT22;11418;48.118;9.992;2022-09-09T14:52:54;27.60;78.50
22503;DHT22;11418;48.118;9.992;2022-09-09T14:56:54;25.00;86.50
22503;DHT22;11418;48.118;9.992;2022-09-09T15:00:55;24.00;91.10
22503;DHT22;11418;48.118;9.992;2022-09-09T15:04:55;24.10;91.30
22503;DHT22;11418;48.118;9.992;2022-09-09T15:08:58;23.50;93.10
22503;DHT22;11418;48.118;9.992;2022-09-09T15:12:59;22.90;94.50
22503;DHT22;11418;48.118;9.992;2022-09-09T15:16:59;22.50;96.50
22503;DHT22;11418;48.118;9.992;2022-09-09T15:21:00;22.10;98.10
22503;DHT22;11418;48.118;9.992;2022-09-09T15:25:03;22.00;97.70
22503;DHT22;11418;48.118;9.992;2022-09-09T15:29:04;22.20;97.40
22503;DHT22;11418;48.118;9.992;2022-09-09T15:33:08;22.20;97.30
22503;DHT22;11418;48.118;9.992;2022-09-09T15:37:10;21.80;99.90
22503;DHT22;11418;48.118;9.992;2022-09-09T15:41:14;21.50;99.90
22503;DHT22;11418;48.118;9.992;2022-09-09T15:45:14;21.10;99.90
22503;DHT22;11418;48.118;9.992;2022-09-09T15:49:20;21.20;99.90
22503;DHT22;11418;48.118;9.992;2022-09-09T15:53:22;21.50;99.90
22503;DHT22;11418;48.118;9.992;2022-09-09T15:57:22;21.60;99.90
22503;DHT22;11418;48.118;9.992;2022-09-09T16:01:23;21.50;99.90
22503;DHT22;11418;48.118;9.992;2022-09-09T16:05:24;21.70;99.90
22503;DHT22;11418;48.118;9.992;2022-09-09T16:09:27;21.20;99.90
22503;DHT22;11418;48.118;9.992;2022-09-09T16:13:27;20.80;99.90
22503;DHT22;11418;48.118;9.992;2022-09-09T16:17:28;20.70;99.90
22503;DHT22;11418;48.118;9.992;2022-09-09T16:21:31;20.60;99.90
22503;DHT22;11418;48.118;9.992;2022-09-09T16:25:32;20.50;99.90
22503;DHT22;11418;48.118;9.992;2022-09-09T16:29:32;20.00;99.90
22503;DHT22;11418;48.118;9.992;2022-09-09T16:33:33;19.70;99.90
22503;DHT22;11418;48.118;9.992;2022-09-09T16:37:33;19.40;99.90
22503;DHT22;11418;48.118;9.992;2022-09-09T16:41:35;19.40;99.90
22503;DHT22;11418;48.118;9.992;2022-09-09T16:45:41;19.20;99.90
22503;DHT22;11418;48.118;9.992;2022-09-09T16:49:42;19.00;99.90
22503;DHT22;11418;48.118;9.992;2022-09-09T16:53:43;19.10;99.90
22503;DHT22;11418;48.118;9.992;2022-09-09T16:57:44;18.90;99.90
22503;DHT22;11418;48.118;9.992;2022-09-09T17:01:46;18.70;99.90
22503;DHT22;11418;48.118;9.992;2022-09-09T17:05:47;18.60;99.90
22503;DHT22;11418;48.118;9.992;2022-09-09T17:09:48;18.30;99.90
22503;DHT22;11418;48.118;9.992;2022-09-09T17:13:50;17.90;99.90
22503;DHT22;11418;48.118;9.992;2022-09-09T17:17:50;17.40;99.90
22503;DHT22;11418;48.118;9.992;2022-09-09T17:21:53;17.00;99.90
22503;DHT22;11418;48.118;9.992;2022-09-09T17:25:58;16.50;99.90
22503;DHT22;11418;48.118;9.992;2022-09-09T17:29:58;16.10;99.90
22503;DHT22;11418;48.118;9.992;2022-09-09T17:33:59;15.70;99.90
22503;DHT22;11418;48.118;9.992;2022-09-09T17:38:00;15.40;99.90
22503;DHT22;11418;48.118;9.992;2022-09-09T17:42:01;15.30;99.90
22503;DHT22;11418;48.118;9.992;2022-09-09T17:46:10;15.20;99.90
22503;DHT22;11418;48.118;9.992;2022-09-09T17:50:11;15.10;99.90
22503;DHT22;11418;48.118;9.992;2022-09-09T17:54:18;14.90;99.90
22503;DHT22;11418;48.118;9.992;2022-09-09T17:58:18;14.70;99.90
22503;DHT22;11418;48.118;9.992;2022-09-09T18:02:19;14.40;99.90
22503;DHT22;11418;48.118;9.992;2022-09-09T18:06:22;14.20;99.90
22503;DHT22;11418;48.118;9.992;2022-09-09T18:10:23;14.20;99.90
22503;DHT22;11418;48.118;9.992;2022-09-09T18:14:27;14.10;99.90
22503;DHT22;11418;48.118;9.992;2022-09-09T18:18:29;13.90;99.90
22503;DHT22;11418;48.118;9.992;2022-09-09T18:22:30;13.80;99.90
22503;DHT22;11418;48.118;9.992;2022-09-09T18:26:31;13.70;99.90
22503;DHT22;11418;48.118;9.992;2022-09-09T18:30:38;13.60;99.90
22503;DHT22;11418;48.118;9.992;2022-09-09T18:34:39;13.40;99.90
22503;DHT22;11418;48.118;9.992;2022-09-09T18:38:40;13.00;99.90
22503;DHT22;11418;48.118;9.992;2022-09-09T18:42:41;12.80;99.90
22503;DHT22;11418;48.118;9.992;2022-09-09T18:46:43;12.90;99.90
22503;DHT22;11418;48.118;9.992;2022-09-09T18:50:44;12.80;99.90
22503;DHT22;11418;48.118;9.992;2022-09-09T18:54:44;12.60;99.90
22503;DHT22;11418;48.118;9.992;2022-09-09T18:58:45;12.70;99.90
22503;DHT22;11418;48.118;9.992;2022-09-09T19:02:48;12.60;99.90
22503;DHT22;11418;48.118;9.992;2022-09-09T19:06:52;12.60;99.90
22503;DHT22;11418;48.118;9.992;2022-09-09T19:11:00;12.60;99.90
22503;DHT22;11418;48.118;9.992;2022-09-09T19:15:02;12.80;99.90
22503;DHT22;11418;48.118;9.992;2022-09-09T19:19:08;13.10;99.90
22503;DHT22;11418;48.118;9.992;2022-09-09T19:23:11;13.30;99.90
22503;DHT22;11418;48.118;9.992;2022-09-09T19:27:12;13.40;99.90
22503;DHT22;11418;48.118;9.992;2022-09-09T19:31:13;13.60;99.90
22503;DHT22;11418;48.118;9.992;2022-09-09T19:35:17;13.70;99.90
22503;DHT22;11418;48.118;9.992;2022-09-09T19:39:19;13.70;99.90
22503;DHT22;11418;48.118;9.992;2022-09-09T19:43:21;13.80;99.90
22503;DHT22;11418;48.118;9.992;2022-09-09T19:47:21;14.00;99.90
22503;DHT22;11418;48.118;9.992;2022-09-09T19:51:24;14.00;99.90
22503;DHT22;11418;48.118;9.992;2022-09-09T19:55:25;14.00;99.90
22503;DHT22;11418;48.118;9.992;2022-09-09T19:59:26;14.10;99.90
22503;DHT22;11418;48.118;9.992;2022-09-09T20:03:27;13.70;99.90
22503;DHT22;11418;48.118;9.992;2022-09-09T20:07:28;13.40;99.90
22503;DHT22;11418;48.118;9.992;2022-09-09T20:11:28;13.20;99.90
22503;DHT22;11418;48.118;9.992;2022-09-09T20:15:29;13.00;99.90
22503;DHT22;11418;48.118;9.992;2022-09-09T20:19:30;12.90;99.90
22503;DHT22;11418;48.118;9.992;2022-09-09T20:23:32;12.90;99.90
22503;DHT22;11418;48.118;9.992;2022-09-09T20:27:33;12.80;99.90
22503;DHT22;11418;48.118;9.992;2022-09-09T20:31:35;12.70;99.90
22503;DHT22;11418;48.118;9.992;2022-09-09T20:35:40;12.70;99.90
22503;DHT22;11418;48.118;9.992;2022-09-09T20:39:40;12.50;99.90
22503;DHT22;11418;48.118;9.992;2022-09-09T20:43:45;12.50;99.90
22503;DHT22;11418;48.118;9.992;2022-09-09T20:47:48;12.40;99.90
22503;DHT22;11418;48.118;9.992;2022-09-09T20:55:58;12.50;99.90
22503;DHT22;11418;48.118;9.992;2022-09-09T20:59:58;12.30;99.90
22503;DHT22;11418;48.118;9.992;2022-09-09T21:03:59;12.30;99.90
22503;DHT22;11418;48.118;9.992;2022-09-09T21:08:00;12.30;99.90
22503;DHT22;11418;48.118;9.992;2022-09-09T21:12:01;12.10;99.90
22503;DHT22;11418;48.118;9.992;2022-09-09T21:16:03;12.10;99.90
22503;DHT22;11418;48.118;9.992;2022-09-09T21:20:05;12.10;99.90
22503;DHT22;11418;48.118;9.992;2022-09-09T21:24:06;12.10;99.90
22503;DHT22;11418;48.118;9.992;2022-09-09T21:28:07;12.20;99.90
22503;DHT22;11418;48.118;9.992;2022-09-09T21:32:08;12.20;99.90
22503;DHT22;11418;48.118;9.992;2022-09-09T21:36:10;12.30;99.90
22503;DHT22;11418;48.118;9.992;2022-09-09T21:40:11;12.30;99.90
22503;DHT22;11418;48.118;9.992;2022-09-09T21:44:11;12.50;99.90
22503;DHT22;11418;48.118;9.992;2022-09-09T21:48:14;12.50;99.90
22503;DHT22;11418;48.118;9.992;2022-09-09T21:52:15;12.50;99.90
22503;DHT22;11418;48.118;9.992;2022-09-09T21:56:17;12.70;99.90
22503;DHT22;11418;48.118;9.992;2022-09-09T22:00:18;12.70;99.90
22503;DHT22;11418;48.118;9.992;2022-09-09T22:04:18;12.50;99.90
22503;DHT22;11418;48.118;9.992;2022-09-09T22:08:19;12.60;99.90
22503;DHT22;11418;48.118;9.992;2022-09-09T22:12:20;12.50;99.90
22503;DHT22;11418;48.118;9.992;2022-09-09T22:16:21;12.60;99.90
22503;DHT22;11418;48.118;9.992;2022-09-09T22:20:22;12.70;99.90
22503;DHT22;11418;48.118;9.992;2022-09-09T22:24:22;13.00;99.90
22503;DHT22;11418;48.118;9.992;2022-09-09T22:28:23;13.30;99.90
22503;DHT22;11418;48.118;9.992;2022-09-09T22:32:23;13.40;99.90
22503;DHT22;11418;48.118;9.992;2022-09-09T22:36:24;13.50;99.90
22503;DHT22;11418;48.118;9.992;2022-09-09T22:40:25;13.60;99.90
22503;DHT22;11418;48.118;9.992;2022-09-09T22:44:26;13.70;99.90
22503;DHT22;11418;48.118;9.992;2022-09-09T22:48:34;13.80;99.90
22503;DHT22;11418;48.118;9.992;2022-09-09T22:52:35;13.80;99.90
22503;DHT22;11418;48.118;9.992;2022-09-09T22:56:36;13.90;99.90
22503;DHT22;11418;48.118;9.992;2022-09-09T23:00:38;14.00;99.90
22503;DHT22;11418;48.118;9.992;2022-09-09T23:04:40;14.10;99.90
22503;DHT22;11418;48.118;9.992;2022-09-09T23:08:41;14.30;99.90
22503;DHT22;11418;48.118;9.992;2022-09-09T23:12:41;14.20;99.90
22503;DHT22;11418;48.118;9.992;2022-09-09T23:16:43;14.20;99.90
22503;DHT22;11418;48.118;9.992;2022-09-09T23:20:44;14.20;99.90
22503;DHT22;11418;48.118;9.992;2022-09-09T23:24:47;14.30;99.90
22503;DHT22;11418;48.118;9.992;2022-09-09T23:28:49;14.30;99.90
22503;DHT22;11418;48.118;9.992;2022-09-09T23:32:51;14.40;99.90
22503;DHT22;11418;48.118;9.992;2022-09-09T23:36:51;14.30;99.90
22503;DHT22;11418;48.118;9.992;2022-09-09T23:40:53;14.40;99.90
22503;DHT22;11418;48.118;9.992;2022-09-09T23:44:53;14.40;99.90
22503;DHT22;11418;48.118;9.992;2022-09-09T23:48:56;14.30;99.90
22503;DHT22;11418;48.118;9.992;2022-09-09T23:52:57;14.10;99.90
22503;DHT22;11418;48.118;9.992;2022-09-09T23:56:58;13.90;99.90
